Webb City, Missouri
Current Conditions -  °F | °C
As of 1:53 PM on Monday 24 Nov 2014 (Local Time) from KJLN Reporting Station
Few Clouds Few Clouds  
Wind Chill: 50°   Ceiling: Unl
Heat Index: 50°   Visibility: 10mi
Dew Point: 27°   Wind: 22mph
Humidity: 41%   Direction: 260°W
Pressure: 29.85"   Gusts: 31mph
Location:  37.15°N, 94.46°W
Report Text: KJLN 241953Z 26019G27KT 10SM FEW049 10/M03 A2985 RMK AO2 PK WND 29028/1941 SLP108 T01001028
Loading
Personal Weather Stations






























Interactive Weather Map New forecast layout! Learn more

10-Day Weather Forecast

Advertisements
Track Severe Weather on mobile